sensor_id;sensor_type;location;lat;lon;timestamp;pressure;altitude;pressure_sealevel;temperature;humidity
19112;BME280;9688;51.906;8.376;2023-03-14T00:01:58;98214.50;;;12.45;89.39
19112;BME280;9688;51.906;8.376;2023-03-14T00:04:43;98225.47;;;12.41;89.65
19112;BME280;9688;51.906;8.376;2023-03-14T00:07:29;98240.91;;;12.36;90.01
19112;BME280;9688;51.906;8.376;2023-03-14T00:10:21;98254.31;;;12.34;89.98
19112;BME280;9688;51.906;8.376;2023-03-14T00:13:09;98251.09;;;12.31;89.96
19112;BME280;9688;51.906;8.376;2023-03-14T00:15:54;98248.66;;;12.27;90.21
19112;BME280;9688;51.906;8.376;2023-03-14T00:18:41;98228.59;;;12.25;90.20
19112;BME280;9688;51.906;8.376;2023-03-14T00:21:27;98227.31;;;12.19;90.43
19112;BME280;9688;51.906;8.376;2023-03-14T00:24:12;98242.59;;;12.16;90.19
19112;BME280;9688;51.906;8.376;2023-03-14T00:26:58;98247.56;;;12.09;90.67
19112;BME280;9688;51.906;8.376;2023-03-14T00:29:45;98252.41;;;12.04;90.64
19112;BME280;9688;51.906;8.376;2023-03-14T00:32:31;98255.41;;;11.99;90.35
19112;BME280;9688;51.906;8.376;2023-03-14T00:35:16;98247.63;;;11.98;90.95
19112;BME280;9688;51.906;8.376;2023-03-14T00:38:02;98243.16;;;11.98;90.43
19112;BME280;9688;51.906;8.376;2023-03-14T00:40:48;98242.06;;;12.01;90.32
19112;BME280;9688;51.906;8.376;2023-03-14T00:43:34;98223.28;;;12.04;90.75
19112;BME280;9688;51.906;8.376;2023-03-14T00:46:21;98206.88;;;12.10;90.24
19112;BME280;9688;51.906;8.376;2023-03-14T00:49:07;98209.97;;;12.15;90.35
19112;BME280;9688;51.906;8.376;2023-03-14T00:51:52;98214.75;;;12.21;89.85
19112;BME280;9688;51.906;8.376;2023-03-14T00:54:38;98216.06;;;12.27;89.54
19112;BME280;9688;51.906;8.376;2023-03-14T00:57:23;98222.63;;;12.33;89.33
19112;BME280;9688;51.906;8.376;2023-03-14T01:00:10;98220.44;;;12.38;89.66
19112;BME280;9688;51.906;8.376;2023-03-14T01:03:00;98232.47;;;12.42;89.14
19112;BME280;9688;51.906;8.376;2023-03-14T01:05:45;98238.34;;;12.45;88.87
19112;BME280;9688;51.906;8.376;2023-03-14T01:08:31;98233.63;;;12.49;89.36
19112;BME280;9688;51.906;8.376;2023-03-14T01:11:18;98215.78;;;12.51;88.68
19112;BME280;9688;51.906;8.376;2023-03-14T01:14:04;98206.84;;;12.52;89.13
19112;BME280;9688;51.906;8.376;2023-03-14T01:16:50;98205.19;;;12.51;88.72
19112;BME280;9688;51.906;8.376;2023-03-14T01:19:37;98191.81;;;12.53;88.69
19112;BME280;9688;51.906;8.376;2023-03-14T01:22:23;98190.69;;;12.55;88.18
19112;BME280;9688;51.906;8.376;2023-03-14T01:25:11;98184.56;;;12.55;88.18
19112;BME280;9688;51.906;8.376;2023-03-14T01:27:56;98173.28;;;12.53;88.36
19112;BME280;9688;51.906;8.376;2023-03-14T01:30:42;98171.56;;;12.52;88.33
19112;BME280;9688;51.906;8.376;2023-03-14T01:33:28;98148.56;;;12.52;88.33
19112;BME280;9688;51.906;8.376;2023-03-14T01:36:15;98168.91;;;12.52;87.75
19112;BME280;9688;51.906;8.376;2023-03-14T01:39:01;98187.34;;;12.53;87.42
19112;BME280;9688;51.906;8.376;2023-03-14T01:41:47;98172.56;;;12.50;87.64
19112;BME280;9688;51.906;8.376;2023-03-14T01:44:47;98170.16;;;12.47;87.81
19112;BME280;9688;51.906;8.376;2023-03-14T01:47:33;98171.72;;;12.50;88.16
19112;BME280;9688;51.906;8.376;2023-03-14T01:50:19;98176.03;;;12.51;87.42
19112;BME280;9688;51.906;8.376;2023-03-14T01:53:07;98161.69;;;12.54;87.74
19112;BME280;9688;51.906;8.376;2023-03-14T01:55:55;98165.88;;;12.56;87.49
19112;BME280;9688;51.906;8.376;2023-03-14T01:58:44;98159.88;;;12.54;87.61
19112;BME280;9688;51.906;8.376;2023-03-14T02:01:30;98158.06;;;12.55;87.69
19112;BME280;9688;51.906;8.376;2023-03-14T02:04:17;98156.13;;;12.57;87.41
19112;BME280;9688;51.906;8.376;2023-03-14T02:07:09;98146.09;;;12.60;86.54
19112;BME280;9688;51.906;8.376;2023-03-14T02:09:58;98139.56;;;12.64;86.53
19112;BME280;9688;51.906;8.376;2023-03-14T02:12:49;98151.44;;;12.70;86.84
19112;BME280;9688;51.906;8.376;2023-03-14T02:15:36;98153.09;;;12.71;87.22
19112;BME280;9688;51.906;8.376;2023-03-14T02:18:22;98189.66;;;12.67;87.53
19112;BME280;9688;51.906;8.376;2023-03-14T02:21:13;98220.38;;;12.49;89.12
19112;BME280;9688;51.906;8.376;2023-03-14T02:24:07;98212.63;;;12.15;90.76
19112;BME280;9688;51.906;8.376;2023-03-14T02:27:04;98205.09;;;11.67;92.85
19112;BME280;9688;51.906;8.376;2023-03-14T02:29:52;98207.97;;;11.32;94.33
19112;BME280;9688;51.906;8.376;2023-03-14T02:32:41;98205.34;;;11.09;94.77
19112;BME280;9688;51.906;8.376;2023-03-14T02:35:33;98206.56;;;10.94;95.09
19112;BME280;9688;51.906;8.376;2023-03-14T02:38:21;98194.91;;;10.85;96.56
19112;BME280;9688;51.906;8.376;2023-03-14T02:41:09;98192.03;;;10.77;97.18
19112;BME280;9688;51.906;8.376;2023-03-14T02:43:56;98193.34;;;10.71;97.22
19112;BME280;9688;51.906;8.376;2023-03-14T02:46:42;98186.88;;;10.64;97.88
19112;BME280;9688;51.906;8.376;2023-03-14T02:49:28;98195.16;;;10.60;98.17
19112;BME280;9688;51.906;8.376;2023-03-14T02:52:16;98197.31;;;10.55;97.98
19112;BME280;9688;51.906;8.376;2023-03-14T02:55:03;98194.06;;;10.51;98.19
19112;BME280;9688;51.906;8.376;2023-03-14T02:57:49;98189.13;;;10.46;98.40
19112;BME280;9688;51.906;8.376;2023-03-14T03:00:36;98192.25;;;10.40;99.16
19112;BME280;9688;51.906;8.376;2023-03-14T03:03:22;98187.44;;;10.34;98.83
19112;BME280;9688;51.906;8.376;2023-03-14T03:06:08;98193.19;;;10.28;99.76
19112;BME280;9688;51.906;8.376;2023-03-14T03:08:57;98188.34;;;10.22;99.76
19112;BME280;9688;51.906;8.376;2023-03-14T03:11:43;98197.56;;;10.16;99.97
19112;BME280;9688;51.906;8.376;2023-03-14T03:14:28;98194.44;;;10.11;100.00
19112;BME280;9688;51.906;8.376;2023-03-14T03:17:15;98190.34;;;10.07;99.93
19112;BME280;9688;51.906;8.376;2023-03-14T03:20:05;98177.38;;;10.04;99.58
19112;BME280;9688;51.906;8.376;2023-03-14T03:22:53;98167.16;;;9.99;100.00
19112;BME280;9688;51.906;8.376;2023-03-14T03:25:38;98181.34;;;9.98;100.00
19112;BME280;9688;51.906;8.376;2023-03-14T03:28:24;98181.19;;;10.00;100.00
19112;BME280;9688;51.906;8.376;2023-03-14T03:31:11;98176.66;;;10.02;100.00
19112;BME280;9688;51.906;8.376;2023-03-14T03:33:58;98175.69;;;10.03;99.87
19112;BME280;9688;51.906;8.376;2023-03-14T03:36:44;98177.50;;;10.02;99.40
19112;BME280;9688;51.906;8.376;2023-03-14T03:39:29;98180.75;;;10.06;99.20
19112;BME280;9688;51.906;8.376;2023-03-14T03:42:14;98177.25;;;10.05;99.95
19112;BME280;9688;51.906;8.376;2023-03-14T03:45:01;98181.47;;;10.08;99.94
19112;BME280;9688;51.906;8.376;2023-03-14T03:47:47;98169.97;;;10.09;99.10
19112;BME280;9688;51.906;8.376;2023-03-14T03:50:34;98176.69;;;10.13;99.98
19112;BME280;9688;51.906;8.376;2023-03-14T03:53:19;98173.09;;;10.14;99.36
19112;BME280;9688;51.906;8.376;2023-03-14T03:56:06;98166.63;;;10.18;100.00
19112;BME280;9688;51.906;8.376;2023-03-14T03:58:51;98167.34;;;10.20;100.00
19112;BME280;9688;51.906;8.376;2023-03-14T04:01:37;98162.91;;;10.21;99.71
19112;BME280;9688;51.906;8.376;2023-03-14T04:04:22;98171.78;;;10.20;100.00
19112;BME280;9688;51.906;8.376;2023-03-14T04:07:09;98164.22;;;10.15;100.00
19112;BME280;9688;51.906;8.376;2023-03-14T04:09:58;98174.88;;;10.14;100.00
19112;BME280;9688;51.906;8.376;2023-03-14T04:12:43;98171.41;;;10.13;100.00
19112;BME280;9688;51.906;8.376;2023-03-14T04:15:29;98174.19;;;10.12;100.00
19112;BME280;9688;51.906;8.376;2023-03-14T04:18:15;98173.69;;;10.07;100.00
19112;BME280;9688;51.906;8.376;2023-03-14T04:21:00;98174.16;;;10.00;100.00
19112;BME280;9688;51.906;8.376;2023-03-14T04:23:47;98168.97;;;9.99;100.00
19112;BME280;9688;51.906;8.376;2023-03-14T04:26:33;98158.31;;;10.00;100.00
19112;BME280;9688;51.906;8.376;2023-03-14T04:29:19;98156.00;;;9.96;100.00
19112;BME280;9688;51.906;8.376;2023-03-14T04:32:05;98156.25;;;9.93;100.00
19112;BME280;9688;51.906;8.376;2023-03-14T04:34:51;98145.19;;;9.88;100.00
19112;BME280;9688;51.906;8.376;2023-03-14T04:37:36;98136.69;;;9.84;100.00
19112;BME280;9688;51.906;8.376;2023-03-14T04:40:23;98138.59;;;9.82;100.00
19112;BME280;9688;51.906;8.376;2023-03-14T04:43:11;98137.00;;;9.79;100.00
19112;BME280;9688;51.906;8.376;2023-03-14T04:45:57;98145.91;;;9.78;100.00
19112;BME280;9688;51.906;8.376;2023-03-14T04:48:43;98138.91;;;9.77;100.00
19112;BME280;9688;51.906;8.376;2023-03-14T04:51:28;98131.25;;;9.74;100.00
19112;BME280;9688;51.906;8.376;2023-03-14T04:54:14;98126.09;;;9.73;100.00
19112;BME280;9688;51.906;8.376;2023-03-14T04:57:01;98124.53;;;9.70;100.00
19112;BME280;9688;51.906;8.376;2023-03-14T04:59:47;98116.47;;;9.72;100.00
19112;BME280;9688;51.906;8.376;2023-03-14T05:02:32;98112.66;;;9.76;100.00
19112;BME280;9688;51.906;8.376;2023-03-14T05:05:19;98107.03;;;9.80;100.00
19112;BME280;9688;51.906;8.376;2023-03-14T05:08:05;98119.16;;;9.83;100.00
19112;BME280;9688;51.906;8.376;2023-03-14T05:10:53;98118.81;;;9.88;100.00
19112;BME280;9688;51.906;8.376;2023-03-14T05:13:40;98114.13;;;9.91;100.00
19112;BME280;9688;51.906;8.376;2023-03-14T05:16:26;98118.09;;;9.97;100.00
19112;BME280;9688;51.906;8.376;2023-03-14T05:19:12;98117.03;;;9.99;100.00
19112;BME280;9688;51.906;8.376;2023-03-14T05:21:57;98114.16;;;10.02;100.00
19112;BME280;9688;51.906;8.376;2023-03-14T05:24:43;98110.34;;;10.07;100.00
19112;BME280;9688;51.906;8.376;2023-03-14T05:27:28;98111.03;;;10.09;100.00
19112;BME280;9688;51.906;8.376;2023-03-14T05:30:16;98109.13;;;10.11;100.00
19112;BME280;9688;51.906;8.376;2023-03-14T05:33:01;98100.13;;;10.13;100.00
19112;BME280;9688;51.906;8.376;2023-03-14T05:35:47;98100.63;;;10.18;100.00
19112;BME280;9688;51.906;8.376;2023-03-14T05:38:32;98088.25;;;10.19;100.00
19112;BME280;9688;51.906;8.376;2023-03-14T05:41:18;98083.94;;;10.18;100.00
19112;BME280;9688;51.906;8.376;2023-03-14T05:44:04;98083.69;;;10.21;100.00
19112;BME280;9688;51.906;8.376;2023-03-14T05:46:51;98089.81;;;10.21;100.00
19112;BME280;9688;51.906;8.376;2023-03-14T05:49:37;98089.72;;;10.23;100.00
19112;BME280;9688;51.906;8.376;2023-03-14T05:52:23;98093.19;;;10.23;100.00
19112;BME280;9688;51.906;8.376;2023-03-14T05:55:09;98098.56;;;10.22;100.00
19112;BME280;9688;51.906;8.376;2023-03-14T05:57:54;98079.38;;;10.20;100.00
19112;BME280;9688;51.906;8.376;2023-03-14T06:00:40;98089.31;;;10.16;100.00
19112;BME280;9688;51.906;8.376;2023-03-14T06:03:26;98078.41;;;10.10;100.00
19112;BME280;9688;51.906;8.376;2023-03-14T06:06:12;98057.53;;;10.07;100.00
19112;BME280;9688;51.906;8.376;2023-03-14T06:08:57;98066.63;;;10.02;100.00
19112;BME280;9688;51.906;8.376;2023-03-14T06:11:43;98073.00;;;10.00;100.00
19112;BME280;9688;51.906;8.376;2023-03-14T06:14:30;98088.81;;;10.00;100.00
19112;BME280;9688;51.906;8.376;2023-03-14T06:17:15;98092.34;;;10.00;100.00
19112;BME280;9688;51.906;8.376;2023-03-14T06:20:06;98095.06;;;9.99;100.00
19112;BME280;9688;51.906;8.376;2023-03-14T06:22:51;98105.88;;;9.96;100.00
19112;BME280;9688;51.906;8.376;2023-03-14T06:25:38;98112.22;;;9.93;100.00
19112;BME280;9688;51.906;8.376;2023-03-14T06:28:25;98094.22;;;9.87;100.00
19112;BME280;9688;51.906;8.376;2023-03-14T06:31:12;98100.81;;;9.81;100.00
19112;BME280;9688;51.906;8.376;2023-03-14T06:33:58;98106.44;;;9.77;100.00
19112;BME280;9688;51.906;8.376;2023-03-14T06:36:45;98089.75;;;9.76;100.00
19112;BME280;9688;51.906;8.376;2023-03-14T06:39:31;98090.34;;;9.80;100.00
19112;BME280;9688;51.906;8.376;2023-03-14T06:42:16;98090.63;;;9.88;100.00
19112;BME280;9688;51.906;8.376;2023-03-14T06:45:02;98089.78;;;9.88;100.00
19112;BME280;9688;51.906;8.376;2023-03-14T06:47:49;98101.16;;;9.88;100.00
19112;BME280;9688;51.906;8.376;2023-03-14T06:50:35;98093.16;;;9.90;100.00
19112;BME280;9688;51.906;8.376;2023-03-14T06:53:25;98097.22;;;9.94;100.00
19112;BME280;9688;51.906;8.376;2023-03-14T06:56:12;98094.72;;;9.92;100.00
19112;BME280;9688;51.906;8.376;2023-03-14T06:59:01;98106.22;;;9.91;100.00
19112;BME280;9688;51.906;8.376;2023-03-14T07:01:50;98105.13;;;9.94;100.00
19112;BME280;9688;51.906;8.376;2023-03-14T07:04:36;98095.41;;;9.94;100.00
19112;BME280;9688;51.906;8.376;2023-03-14T07:07:22;98090.75;;;9.98;100.00
19112;BME280;9688;51.906;8.376;2023-03-14T07:10:10;98086.69;;;10.05;100.00
19112;BME280;9688;51.906;8.376;2023-03-14T07:12:58;98100.72;;;10.05;100.00
19112;BME280;9688;51.906;8.376;2023-03-14T07:15:44;98099.78;;;10.07;100.00
19112;BME280;9688;51.906;8.376;2023-03-14T07:18:31;98097.72;;;10.10;100.00
19112;BME280;9688;51.906;8.376;2023-03-14T07:21:19;98093.66;;;10.17;100.00
19112;BME280;9688;51.906;8.376;2023-03-14T07:24:06;98097.19;;;10.29;100.00
19112;BME280;9688;51.906;8.376;2023-03-14T07:26:55;98094.53;;;10.40;100.00
19112;BME280;9688;51.906;8.376;2023-03-14T07:29:48;98096.56;;;10.59;100.00
19112;BME280;9688;51.906;8.376;2023-03-14T07:32:36;98096.66;;;10.69;100.00
19112;BME280;9688;51.906;8.376;2023-03-14T07:35:21;98097.41;;;10.71;100.00
19112;BME280;9688;51.906;8.376;2023-03-14T07:38:07;98103.75;;;10.68;100.00
19112;BME280;9688;51.906;8.376;2023-03-14T07:40:58;98098.81;;;10.64;100.00
19112;BME280;9688;51.906;8.376;2023-03-14T07:43:46;98101.47;;;10.64;100.00
19112;BME280;9688;51.906;8.376;2023-03-14T07:46:33;98101.25;;;10.67;100.00
19112;BME280;9688;51.906;8.376;2023-03-14T07:49:18;98097.75;;;10.66;100.00
19112;BME280;9688;51.906;8.376;2023-03-14T07:52:04;98099.31;;;10.69;100.00
19112;BME280;9688;51.906;8.376;2023-03-14T07:54:50;98093.53;;;10.75;100.00
19112;BME280;9688;51.906;8.376;2023-03-14T07:57:37;98093.06;;;10.81;100.00
19112;BME280;9688;51.906;8.376;2023-03-14T08:00:25;98094.00;;;10.80;100.00
19112;BME280;9688;51.906;8.376;2023-03-14T08:03:12;98094.47;;;10.85;100.00
19112;BME280;9688;51.906;8.376;2023-03-14T08:05:58;98091.72;;;10.87;100.00
19112;BME280;9688;51.906;8.376;2023-03-14T08:08:47;98093.50;;;10.98;100.00
19112;BME280;9688;51.906;8.376;2023-03-14T08:11:33;98095.50;;;11.05;100.00
19112;BME280;9688;51.906;8.376;2023-03-14T08:14:19;98092.50;;;11.10;100.00
19112;BME280;9688;51.906;8.376;2023-03-14T08:17:07;98099.59;;;11.09;100.00
19112;BME280;9688;51.906;8.376;2023-03-14T08:19:55;98099.47;;;11.11;100.00
19112;BME280;9688;51.906;8.376;2023-03-14T08:22:45;98105.09;;;11.18;100.00
19112;BME280;9688;51.906;8.376;2023-03-14T08:25:38;98103.63;;;11.25;100.00
19112;BME280;9688;51.906;8.376;2023-03-14T08:28:23;98106.88;;;11.28;100.00
19112;BME280;9688;51.906;8.376;2023-03-14T08:31:14;98101.59;;;11.28;100.00
19112;BME280;9688;51.906;8.376;2023-03-14T08:34:01;98107.56;;;11.30;100.00
19112;BME280;9688;51.906;8.376;2023-03-14T08:36:48;98115.28;;;11.33;100.00
19112;BME280;9688;51.906;8.376;2023-03-14T08:39:34;98112.63;;;11.33;100.00
19112;BME280;9688;51.906;8.376;2023-03-14T08:42:19;98106.00;;;11.39;100.00
19112;BME280;9688;51.906;8.376;2023-03-14T08:45:07;98104.97;;;11.51;100.00
19112;BME280;9688;51.906;8.376;2023-03-14T08:47:55;98111.19;;;11.61;100.00
19112;BME280;9688;51.906;8.376;2023-03-14T08:50:46;98109.13;;;11.65;100.00
19112;BME280;9688;51.906;8.376;2023-03-14T08:53:37;98109.59;;;11.70;100.00
19112;BME280;9688;51.906;8.376;2023-03-14T08:56:27;98109.38;;;11.83;100.00
19112;BME280;9688;51.906;8.376;2023-03-14T08:59:14;98108.06;;;11.89;100.00
19112;BME280;9688;51.906;8.376;2023-03-14T09:02:01;98116.91;;;11.99;100.00
19112;BME280;9688;51.906;8.376;2023-03-14T09:04:47;98121.47;;;12.18;100.00
19112;BME280;9688;51.906;8.376;2023-03-14T09:07:37;98116.38;;;12.26;100.00
19112;BME280;9688;51.906;8.376;2023-03-14T09:10:22;98111.09;;;12.36;100.00
19112;BME280;9688;51.906;8.376;2023-03-14T09:13:09;98108.63;;;12.44;100.00
19112;BME280;9688;51.906;8.376;2023-03-14T09:15:56;98106.84;;;12.44;100.00
19112;BME280;9688;51.906;8.376;2023-03-14T09:18:41;98109.78;;;12.51;100.00
19112;BME280;9688;51.906;8.376;2023-03-14T09:21:27;98105.88;;;12.55;99.74
19112;BME280;9688;51.906;8.376;2023-03-14T09:24:16;98109.13;;;12.59;99.68
19112;BME280;9688;51.906;8.376;2023-03-14T09:27:05;98116.81;;;12.62;99.32
19112;BME280;9688;51.906;8.376;2023-03-14T09:29:53;98119.28;;;12.54;99.34
19112;BME280;9688;51.906;8.376;2023-03-14T09:32:44;98121.03;;;12.43;99.81
19112;BME280;9688;51.906;8.376;2023-03-14T09:35:33;98117.38;;;12.35;99.70
19112;BME280;9688;51.906;8.376;2023-03-14T09:38:20;98122.22;;;12.30;100.00
19112;BME280;9688;51.906;8.376;2023-03-14T09:41:18;98128.44;;;12.40;99.71
19112;BME280;9688;51.906;8.376;2023-03-14T09:44:12;98123.88;;;12.52;100.00
19112;BME280;9688;51.906;8.376;2023-03-14T09:47:05;98127.81;;;12.57;99.98
19112;BME280;9688;51.906;8.376;2023-03-14T09:49:51;98129.91;;;12.63;99.62
19112;BME280;9688;51.906;8.376;2023-03-14T09:52:39;98131.34;;;12.67;99.64
19112;BME280;9688;51.906;8.376;2023-03-14T09:55:28;98128.84;;;12.76;99.42
19112;BME280;9688;51.906;8.376;2023-03-14T09:58:18;98126.78;;;12.79;98.98
19112;BME280;9688;51.906;8.376;2023-03-14T10:01:07;98133.50;;;12.83;99.56
19112;BME280;9688;51.906;8.376;2023-03-14T10:04:01;98136.94;;;12.74;99.68
19112;BME280;9688;51.906;8.376;2023-03-14T10:06:49;98144.03;;;12.64;100.00
19112;BME280;9688;51.906;8.376;2023-03-14T10:09:35;98148.06;;;12.58;100.00
19112;BME280;9688;51.906;8.376;2023-03-14T10:12:30;98154.84;;;12.51;100.00
19112;BME280;9688;51.906;8.376;2023-03-14T10:15:25;98155.38;;;12.45;100.00
19112;BME280;9688;51.906;8.376;2023-03-14T10:18:13;98152.13;;;12.41;100.00
19112;BME280;9688;51.906;8.376;2023-03-14T10:21:05;98153.00;;;12.42;100.00
19112;BME280;9688;51.906;8.376;2023-03-14T10:23:53;98150.19;;;12.43;100.00
19112;BME280;9688;51.906;8.376;2023-03-14T10:26:40;98155.38;;;12.45;100.00
19112;BME280;9688;51.906;8.376;2023-03-14T10:29:28;98165.97;;;12.45;100.00
19112;BME280;9688;51.906;8.376;2023-03-14T10:32:20;98160.50;;;12.37;100.00
19112;BME280;9688;51.906;8.376;2023-03-14T10:35:18;98183.16;;;12.30;100.00
19112;BME280;9688;51.906;8.376;2023-03-14T10:38:13;98252.03;;;12.09;100.00
19112;BME280;9688;51.906;8.376;2023-03-14T10:41:16;98278.50;;;11.65;100.00
19112;BME280;9688;51.906;8.376;2023-03-14T10:44:12;98289.63;;;11.25;100.00
19112;BME280;9688;51.906;8.376;2023-03-14T10:47:00;98298.47;;;10.90;100.00
19112;BME280;9688;51.906;8.376;2023-03-14T10:49:48;98298.66;;;10.54;100.00
19112;BME280;9688;51.906;8.376;2023-03-14T10:52:48;98322.16;;;10.21;100.00
19112;BME280;9688;51.906;8.376;2023-03-14T10:55:40;98317.63;;;9.99;100.00
19112;BME280;9688;51.906;8.376;2023-03-14T10:58:27;98335.19;;;9.88;100.00
19112;BME280;9688;51.906;8.376;2023-03-14T11:01:27;98337.84;;;9.75;100.00
19112;BME280;9688;51.906;8.376;2023-03-14T11:04:25;98346.44;;;9.66;100.00
19112;BME280;9688;51.906;8.376;2023-03-14T11:07:27;98363.16;;;9.53;100.00
19112;BME280;9688;51.906;8.376;2023-03-14T11:10:22;98374.97;;;9.48;100.00
19112;BME280;9688;51.906;8.376;2023-03-14T11:13:16;98404.38;;;9.42;100.00
19112;BME280;9688;51.906;8.376;2023-03-14T11:16:07;98422.66;;;9.32;100.00
19112;BME280;9688;51.906;8.376;2023-03-14T11:19:20;98442.88;;;9.19;100.00
19112;BME280;9688;51.906;8.376;2023-03-14T11:22:20;98469.00;;;9.09;100.00
19112;BME280;9688;51.906;8.376;2023-03-14T11:25:21;98487.03;;;9.02;100.00
19112;BME280;9688;51.906;8.376;2023-03-14T11:28:17;98509.44;;;8.95;100.00
19112;BME280;9688;51.906;8.376;2023-03-14T11:31:11;98525.25;;;8.82;100.00
19112;BME280;9688;51.906;8.376;2023-03-14T11:34:02;98538.31;;;8.57;100.00
19112;BME280;9688;51.906;8.376;2023-03-14T11:36:52;98560.75;;;8.34;100.00
19112;BME280;9688;51.906;8.376;2023-03-14T11:39:50;98573.28;;;8.16;100.00
19112;BME280;9688;51.906;8.376;2023-03-14T11:42:47;98593.78;;;7.96;100.00
19112;BME280;9688;51.906;8.376;2023-03-14T11:45:39;98612.25;;;7.80;100.00
19112;BME280;9688;51.906;8.376;2023-03-14T11:48:35;98635.81;;;7.68;100.00
19112;BME280;9688;51.906;8.376;2023-03-14T11:51:29;98655.44;;;7.62;100.00
19112;BME280;9688;51.906;8.376;2023-03-14T11:54:24;98666.09;;;7.59;100.00
19112;BME280;9688;51.906;8.376;2023-03-14T11:57:19;98694.13;;;7.60;99.39
19112;BME280;9688;51.906;8.376;2023-03-14T12:00:15;98698.69;;;7.56;99.00
19112;BME280;9688;51.906;8.376;2023-03-14T12:03:06;98722.34;;;7.56;99.17
19112;BME280;9688;51.906;8.376;2023-03-14T12:06:02;98734.47;;;7.59;98.18
19112;BME280;9688;51.906;8.376;2023-03-14T12:08:55;98756.69;;;7.69;97.27
19112;BME280;9688;51.906;8.376;2023-03-14T12:11:47;98763.75;;;7.69;96.67
19112;BME280;9688;51.906;8.376;2023-03-14T12:14:36;98773.06;;;7.74;95.87
19112;BME280;9688;51.906;8.376;2023-03-14T12:17:25;98787.72;;;7.78;95.12
19112;BME280;9688;51.906;8.376;2023-03-14T12:20:17;98807.44;;;7.87;94.32
19112;BME280;9688;51.906;8.376;2023-03-14T12:23:11;98818.25;;;7.97;94.11
19112;BME280;9688;51.906;8.376;2023-03-14T12:26:24;98830.69;;;8.09;93.67
19112;BME280;9688;51.906;8.376;2023-03-14T12:29:18;98838.50;;;8.26;92.31
19112;BME280;9688;51.906;8.376;2023-03-14T12:32:24;98842.44;;;8.34;91.31
19112;BME280;9688;51.906;8.376;2023-03-14T12:35:34;98852.41;;;8.44;91.36
19112;BME280;9688;51.906;8.376;2023-03-14T12:38:26;98852.69;;;8.40;90.75
19112;BME280;9688;51.906;8.376;2023-03-14T12:41:17;98858.44;;;8.46;90.51
19112;BME280;9688;51.906;8.376;2023-03-14T12:44:39;98861.66;;;8.52;90.27
19112;BME280;9688;51.906;8.376;2023-03-14T12:47:44;98853.84;;;8.64;89.97
19112;BME280;9688;51.906;8.376;2023-03-14T12:50:35;98856.19;;;8.85;89.37
19112;BME280;9688;51.906;8.376;2023-03-14T12:57:09;98870.97;;;9.16;88.95
19112;BME280;9688;51.906;8.376;2023-03-14T12:59:58;98883.69;;;9.24;87.53
19112;BME280;9688;51.906;8.376;2023-03-14T13:02:52;98892.00;;;9.18;87.54
19112;BME280;9688;51.906;8.376;2023-03-14T13:05:52;98902.22;;;9.08;87.69
19112;BME280;9688;51.906;8.376;2023-03-14T13:08:41;98906.19;;;9.01;87.97
19112;BME280;9688;51.906;8.376;2023-03-14T13:11:27;98928.09;;;9.01;88.53
19112;BME280;9688;51.906;8.376;2023-03-14T13:14:13;98927.34;;;8.99;87.67
19112;BME280;9688;51.906;8.376;2023-03-14T13:17:01;98936.66;;;8.90;87.68
19112;BME280;9688;51.906;8.376;2023-03-14T13:19:54;98961.25;;;8.75;88.77
19112;BME280;9688;51.906;8.376;2023-03-14T13:22:47;98986.94;;;8.56;89.36
19112;BME280;9688;51.906;8.376;2023-03-14T13:25:35;98981.34;;;8.46;89.05
19112;BME280;9688;51.906;8.376;2023-03-14T13:28:22;98986.34;;;8.35;89.97
19112;BME280;9688;51.906;8.376;2023-03-14T13:31:23;98995.25;;;8.32;89.42
19112;BME280;9688;51.906;8.376;2023-03-14T13:34:10;98996.88;;;8.35;90.00
19112;BME280;9688;51.906;8.376;2023-03-14T13:36:59;99001.44;;;8.31;89.28
19112;BME280;9688;51.906;8.376;2023-03-14T13:39:51;99007.41;;;8.35;89.49
19112;BME280;9688;51.906;8.376;2023-03-14T13:42:44;99012.56;;;8.36;89.93
19112;BME280;9688;51.906;8.376;2023-03-14T13:45:48;99008.88;;;8.40;89.83
19112;BME280;9688;51.906;8.376;2023-03-14T13:48:39;99022.03;;;8.40;88.73
19112;BME280;9688;51.906;8.376;2023-03-14T13:51:27;99027.13;;;8.43;89.06
19112;BME280;9688;51.906;8.376;2023-03-14T13:54:19;99030.38;;;8.48;88.65
19112;BME280;9688;51.906;8.376;2023-03-14T13:57:07;99035.19;;;8.56;88.37
19112;BME280;9688;51.906;8.376;2023-03-14T14:00:07;99050.50;;;8.65;87.75
19112;BME280;9688;51.906;8.376;2023-03-14T14:02:58;99064.50;;;8.82;87.79
19112;BME280;9688;51.906;8.376;2023-03-14T14:05:46;99070.63;;;8.98;87.09
19112;BME280;9688;51.906;8.376;2023-03-14T14:08:33;99087.25;;;9.14;85.99
19112;BME280;9688;51.906;8.376;2023-03-14T14:11:35;99099.78;;;9.25;85.14
19112;BME280;9688;51.906;8.376;2023-03-14T14:14:26;99105.16;;;9.24;84.93
19112;BME280;9688;51.906;8.376;2023-03-14T14:17:17;99105.34;;;9.21;84.34
19112;BME280;9688;51.906;8.376;2023-03-14T14:20:15;99130.09;;;9.18;83.89
19112;BME280;9688;51.906;8.376;2023-03-14T14:23:07;99133.50;;;9.20;82.99
19112;BME280;9688;51.906;8.376;2023-03-14T14:25:56;99137.72;;;9.23;82.80
19112;BME280;9688;51.906;8.376;2023-03-14T14:28:46;99147.19;;;9.27;81.00
19112;BME280;9688;51.906;8.376;2023-03-14T14:31:35;99150.66;;;9.27;81.93
19112;BME280;9688;51.906;8.376;2023-03-14T14:34:25;99157.06;;;9.23;80.08
19112;BME280;9688;51.906;8.376;2023-03-14T14:37:19;99163.78;;;9.13;79.98
19112;BME280;9688;51.906;8.376;2023-03-14T14:40:13;99185.28;;;9.05;79.94
19112;BME280;9688;51.906;8.376;2023-03-14T14:43:05;99203.13;;;9.00;78.68
19112;BME280;9688;51.906;8.376;2023-03-14T14:45:55;99215.97;;;8.90;78.80
19112;BME280;9688;51.906;8.376;2023-03-14T14:48:42;99223.97;;;8.89;78.02
19112;BME280;9688;51.906;8.376;2023-03-14T14:51:33;99238.25;;;8.85;76.89
19112;BME280;9688;51.906;8.376;2023-03-14T14:54:33;99243.97;;;8.76;76.48
19112;BME280;9688;51.906;8.376;2023-03-14T14:57:21;99249.75;;;8.66;75.88
19112;BME280;9688;51.906;8.376;2023-03-14T15:00:09;99258.94;;;8.59;75.84
19112;BME280;9688;51.906;8.376;2023-03-14T15:03:00;99270.75;;;8.51;74.48
19112;BME280;9688;51.906;8.376;2023-03-14T15:05:50;99274.44;;;8.48;73.53
19112;BME280;9688;51.906;8.376;2023-03-14T15:08:37;99275.44;;;8.45;73.40
19112;BME280;9688;51.906;8.376;2023-03-14T15:11:25;99294.63;;;8.47;72.65